Time;durP1;ratioP1;P1;durP2;ratioP2;P2;SDS_P1;SDS_P2;PMS_P1;PMS_P2;Temp;Humidity;BMP_temperature;BMP_pressure;BME280_temperature;BME280_humidity;BME280_pressure;Samples;Min_cycle;Max_cycle;Signal;HPM_P1;HPM_P2
2023/06/03 00:00:12;;;;;;;7.07;1.20;;;;;;;;;;5037943;28;20045;-86
2023/06/03 00:02:41;;;;;;;5.68;1.20;;;;;;;;;;5044239;28;20096;-88
2023/06/03 00:05:08;;;;;;;3.45;1.05;;;;;;;;;;5009208;28;20078;-90
2023/06/03 00:07:34;;;;;;;4.70;1.13;;;;;;;;;;5037635;28;20045;-90
2023/06/03 00:10:00;;;;;;;4.20;1.00;;;;;;;;;;5046536;28;20064;-90
2023/06/03 00:12:26;;;;;;;4.13;1.20;;;;;;;;;;5029068;28;20038;-90
2023/06/03 00:14:53;;;;;;;4.90;1.10;;;;;;;;;;5028909;28;20041;-90
2023/06/03 00:17:21;;;;;;;4.80;1.10;;;;;;;;;;5013117;28;20049;-89
2023/06/03 00:19:48;;;;;;;6.22;1.17;;;;;;;;;;5052727;28;20046;-90
2023/06/03 00:22:14;;;;;;;6.40;1.13;;;;;;;;;;5053702;28;20026;-89
2023/06/03 00:24:40;;;;;;;4.57;1.20;;;;;;;;;;5042375;28;20441;-90
2023/06/03 00:27:06;;;;;;;6.45;1.08;;;;;;;;;;5009968;28;20130;-87
2023/06/03 00:29:32;;;;;;;5.25;1.20;;;;;;;;;;5043218;28;20041;-90
2023/06/03 00:31:59;;;;;;;4.55;1.10;;;;;;;;;;5039208;28;20042;-89
2023/06/03 00:34:25;;;;;;;4.72;1.23;;;;;;;;;;5043178;28;20041;-89
2023/06/03 00:36:51;;;;;;;5.45;0.98;;;;;;;;;;5047861;28;20045;-90
2023/06/03 00:39:20;;;;;;;5.00;1.00;;;;;;;;;;5056337;28;20028;-85
2023/06/03 00:41:46;;;;;;;7.43;1.30;;;;;;;;;;5057431;28;20045;-87
2023/06/03 00:44:12;;;;;;;5.70;1.00;;;;;;;;;;5036441;28;20049;-90
2023/06/03 00:46:38;;;;;;;5.03;1.00;;;;;;;;;;5046725;28;20045;-90
2023/06/03 00:49:04;;;;;;;3.50;1.10;;;;;;;;;;5014713;28;20042;-90
2023/06/03 00:51:36;;;;;;;3.67;0.88;;;;;;;;;;5030813;28;20054;-90
2023/06/03 00:54:02;;;;;;;4.57;1.10;;;;;;;;;;5012372;28;20080;-90
2023/06/03 00:56:30;;;;;;;3.53;1.00;;;;;;;;;;5028847;28;20078;-90
2023/06/03 00:58:56;;;;;;;3.72;1.10;;;;;;;;;;5026552;28;20053;-90
2023/06/03 01:01:24;;;;;;;4.85;1.10;;;;;;;;;;5031538;28;20046;-89
2023/06/03 01:03:50;;;;;;;3.65;1.00;;;;;;;;;;5031809;28;20054;-90
2023/06/03 01:06:23;;;;;;;6.00;1.20;;;;;;;;;;5031982;28;20049;-91
2023/06/03 01:09:02;;;;;;;5.72;1.30;;;;;;;;;;5042659;28;20403;-90
2023/06/03 01:11:35;;;;;;;4.15;0.90;;;;;;;;;;5034068;28;20105;-90
2023/06/03 01:14:08;;;;;;;4.03;1.02;;;;;;;;;;5058318;28;20102;-90
2023/06/03 01:16:37;;;;;;;4.78;1.30;;;;;;;;;;5038707;28;20080;-90
2023/06/03 01:19:08;;;;;;;5.10;1.13;;;;;;;;;;5049026;28;20064;-89
2023/06/03 01:21:38;;;;;;;;;;;;;;;;;;5050153;28;20121;-90
2023/06/03 01:24:04;;;;;;;5.40;1.20;;;;;;;;;;5034044;28;19921;-89
2023/06/03 01:26:31;;;;;;;3.78;1.17;;;;;;;;;;5017058;28;20042;-90
2023/06/03 01:28:57;;;;;;;5.13;1.17;;;;;;;;;;5047959;28;20053;-90
2023/06/03 01:31:23;;;;;;;4.88;1.25;;;;;;;;;;5033429;28;20056;-90
2023/06/03 01:33:52;;;;;;;3.33;1.13;;;;;;;;;;5050028;28;20104;-90
2023/06/03 01:36:18;;;;;;;3.75;1.30;;;;;;;;;;5049552;28;20052;-90
2023/06/03 01:38:44;;;;;;;3.63;1.00;;;;;;;;;;5029345;28;20061;-88
2023/06/03 01:41:11;;;;;;;5.60;1.08;;;;;;;;;;5039881;28;20063;-89
2023/06/03 01:43:37;;;;;;;6.97;1.63;;;;;;;;;;5042139;28;20022;-89
2023/06/03 01:46:03;;;;;;;5.20;1.40;;;;;;;;;;5051017;28;20041;-91
2023/06/03 01:48:29;;;;;;;4.15;1.30;;;;;;;;;;5048416;28;20046;-90
2023/06/03 01:50:55;;;;;;;6.03;1.50;;;;;;;;;;5049730;28;20404;-90
2023/06/03 01:53:21;;;;;;;4.50;1.55;;;;;;;;;;5031566;28;20098;-90
2023/06/03 01:55:48;;;;;;;4.15;1.40;;;;;;;;;;5004014;28;20563;-92
2023/06/03 01:58:14;;;;;;;4.22;1.30;;;;;;;;;;5041533;28;20057;-88
2023/06/03 02:00:41;;;;;;;4.95;1.60;;;;;;;;;;5048818;28;20060;-86
2023/06/03 02:03:07;;;;;;;3.22;1.08;;;;;;;;;;5050025;28;20512;-90
2023/06/03 02:05:33;;;;;;;6.82;1.30;;;;;;;;;;5032225;28;20056;-91
2023/06/03 02:07:59;;;;;;;4.00;1.30;;;;;;;;;;5030460;28;20049;-91
2023/06/03 02:10:25;;;;;;;4.15;1.33;;;;;;;;;;5004148;28;20050;-90
2023/06/03 02:12:51;;;;;;;6.25;1.40;;;;;;;;;;5044430;28;20067;-90
2023/06/03 02:15:17;;;;;;;6.05;1.30;;;;;;;;;;5015433;28;20045;-89
2023/06/03 02:17:43;;;;;;;5.47;1.20;;;;;;;;;;5032539;28;20045;-89
2023/06/03 02:20:12;;;;;;;4.72;1.38;;;;;;;;;;5048324;28;20045;-89
2023/06/03 02:22:38;;;;;;;4.15;1.30;;;;;;;;;;5041432;28;20046;-90
2023/06/03 02:25:06;;;;;;;4.88;1.50;;;;;;;;;;5027860;28;20049;-90
2023/06/03 02:27:33;;;;;;;6.45;1.50;;;;;;;;;;5033471;28;20049;-90
2023/06/03 02:29:59;;;;;;;3.55;1.40;;;;;;;;;;5046135;28;20050;-90
2023/06/03 02:32:25;;;;;;;4.28;1.50;;;;;;;;;;5031400;28;20099;-89
2023/06/03 02:34:52;;;;;;;7.05;1.30;;;;;;;;;;5029904;28;20049;-91
2023/06/03 02:37:18;;;;;;;6.75;1.48;;;;;;;;;;5039794;28;20077;-90
2023/06/03 02:39:44;;;;;;;5.57;1.33;;;;;;;;;;5028431;28;20046;-90
2023/06/03 02:42:11;;;;;;;6.28;1.27;;;;;;;;;;5044108;28;20046;-91
2023/06/03 02:44:37;;;;;;;4.93;1.40;;;;;;;;;;5027876;28;20080;-91
2023/06/03 02:47:04;;;;;;;6.55;1.40;;;;;;;;;;5028604;28;20049;-88
2023/06/03 02:49:30;;;;;;;5.80;1.50;;;;;;;;;;5049141;28;20129;-91
2023/06/03 02:51:57;;;;;;;4.78;1.17;;;;;;;;;;5047843;28;20079;-91
2023/06/03 02:54:25;;;;;;;3.85;1.27;;;;;;;;;;5048108;28;20113;-91
2023/06/03 02:56:52;;;;;;;7.15;1.58;;;;;;;;;;5047543;28;20049;-91
2023/06/03 02:59:18;;;;;;;7.28;1.30;;;;;;;;;;5055047;28;20048;-89
2023/06/03 03:01:44;;;;;;;7.75;1.50;;;;;;;;;;5053667;28;20059;-90
2023/06/03 03:04:13;;;;;;;4.40;1.40;;;;;;;;;;5042346;28;20034;-90
2023/06/03 03:06:40;;;;;;;6.47;1.60;;;;;;;;;;5048159;28;20041;-92
2023/06/03 03:09:07;;;;;;;7.53;1.60;;;;;;;;;;5046202;28;20096;-91
2023/06/03 03:11:33;;;;;;;4.97;1.40;;;;;;;;;;5048668;28;20159;-90
2023/06/03 03:13:59;;;;;;;6.25;1.40;;;;;;;;;;5048645;28;20038;-91
2023/06/03 03:16:26;;;;;;;4.15;1.33;;;;;;;;;;5048615;28;20041;-91
2023/06/03 03:18:52;;;;;;;4.82;1.52;;;;;;;;;;5048076;28;20087;-91
2023/06/03 03:21:21;;;;;;;4.55;1.50;;;;;;;;;;5040553;28;20042;-90
2023/06/03 03:23:47;;;;;;;4.95;1.50;;;;;;;;;;5048522;28;20046;-91
2023/06/03 03:26:15;;;;;;;5.53;1.63;;;;;;;;;;5050220;28;20044;-91
2023/06/03 03:28:41;;;;;;;6.60;1.60;;;;;;;;;;5043912;28;20049;-89
2023/06/03 03:31:09;;;;;;;5.05;1.50;;;;;;;;;;5028368;28;20049;-90
2023/06/03 03:33:35;;;;;;;5.38;1.50;;;;;;;;;;5031418;28;20053;-90
2023/06/03 03:36:20;;;;;;;5.63;1.50;;;;;;;;;;5014184;28;20049;-90
2023/06/03 03:38:46;;;;;;;5.35;2.03;;;;;;;;;;5011307;28;20076;-90
2023/06/03 03:41:12;;;;;;;5.47;1.55;;;;;;;;;;5024924;28;20400;-90
2023/06/03 03:43:38;;;;;;;5.72;1.40;;;;;;;;;;5046475;28;20051;-91
2023/06/03 03:46:08;;;;;;;8.27;1.55;;;;;;;;;;5047397;28;20041;-90
2023/06/03 03:48:34;;;;;;;5.40;1.50;;;;;;;;;;5028201;28;20037;-90
2023/06/03 03:51:00;;;;;;;6.80;1.70;;;;;;;;;;5046904;28;20053;-91
2023/06/03 03:53:28;;;;;;;4.22;1.40;;;;;;;;;;5013020;28;20060;-90
2023/06/03 03:55:56;;;;;;;6.13;1.75;;;;;;;;;;5046924;28;20049;-91
2023/06/03 03:58:37;;;;;;;6.60;1.55;;;;;;;;;;5026628;28;20050;-91
2023/06/03 04:01:17;;;;;;;6.72;1.90;;;;;;;;;;5028117;28;20045;-91
2023/06/03 04:03:45;;;;;;;4.35;1.35;;;;;;;;;;5028747;28;20049;-90
2023/06/03 04:06:12;;;;;;;4.85;1.42;;;;;;;;;;5045144;28;20052;-91
2023/06/03 04:08:44;;;;;;;7.32;1.75;;;;;;;;;;5027680;28;20090;-90
2023/06/03 04:11:10;;;;;;;;;;;;;;;;;;5025695;28;20045;-91
2023/06/03 04:13:39;;;;;;;6.60;1.88;;;;;;;;;;5027265;28;19959;-90
2023/06/03 04:16:12;;;;;;;3.95;1.50;;;;;;;;;;5027034;28;20491;-89
2023/06/03 04:18:41;;;;;;;4.90;1.67;;;;;;;;;;5041446;28;20042;-91
2023/06/03 04:21:14;;;;;;;7.85;1.70;;;;;;;;;;5034723;28;20084;-90
2023/06/03 04:23:40;;;;;;;5.47;1.63;;;;;;;;;;5054169;28;20100;-91
2023/06/03 04:26:09;;;;;;;5.43;1.77;;;;;;;;;;5048666;28;20041;-91
2023/06/03 04:28:35;;;;;;;7.28;1.70;;;;;;;;;;5041700;28;20050;-87
2023/06/03 04:31:01;;;;;;;5.97;1.77;;;;;;;;;;5029391;28;20057;-92
2023/06/03 04:33:27;;;;;;;4.28;1.40;;;;;;;;;;5052553;28;20060;-92
2023/06/03 04:35:56;;;;;;;8.27;1.58;;;;;;;;;;5029773;28;20061;-91
2023/06/03 04:38:22;;;;;;;5.38;1.40;;;;;;;;;;5042591;28;20096;-91
2023/06/03 04:40:51;;;;;;;5.68;1.70;;;;;;;;;;5031300;28;20137;-91
2023/06/03 04:43:22;;;;;;;4.93;1.70;;;;;;;;;;5028918;28;20081;-91
2023/06/03 04:45:53;;;;;;;5.47;1.70;;;;;;;;;;5030316;28;20056;-91
2023/06/03 04:48:22;;;;;;;6.32;2.38;;;;;;;;;;5044517;28;20059;-91
2023/06/03 04:50:48;;;;;;;6.30;1.85;;;;;;;;;;5029746;28;20124;-90
2023/06/03 04:53:14;;;;;;;4.28;1.48;;;;;;;;;;5030432;28;20042;-91
2023/06/03 04:55:53;;;;;;;4.90;1.83;;;;;;;;;;5030432;28;20045;-90
2023/06/03 04:58:20;;;;;;;5.00;1.48;;;;;;;;;;5043413;28;20037;-92
2023/06/03 05:00:48;;;;;;;4.95;1.75;;;;;;;;;;5050377;28;20042;-91
2023/06/03 05:03:33;;;;;;;6.18;1.67;;;;;;;;;;5050533;28;20041;-91
2023/06/03 05:06:11;;;;;;;6.65;1.80;;;;;;;;;;5051552;28;20057;-91
2023/06/03 05:08:42;;;;;;;4.75;1.42;;;;;;;;;;5037170;28;20042;-89
2023/06/03 05:11:08;;;;;;;7.25;2.05;;;;;;;;;;5048711;28;20053;-89
2023/06/03 05:13:34;;;;;;;4.63;1.73;;;;;;;;;;5049520;28;20124;-90
2023/06/03 05:16:03;;;;;;;7.65;2.00;;;;;;;;;;5048934;28;20041;-91
2023/06/03 05:18:30;;;;;;;5.90;1.92;;;;;;;;;;5047538;28;20047;-91
2023/06/03 05:20:56;;;;;;;9.63;2.20;;;;;;;;;;5047802;28;20045;-91
2023/06/03 05:23:22;;;;;;;6.15;1.95;;;;;;;;;;5034940;28;20060;-88
2023/06/03 05:25:53;;;;;;;5.13;1.50;;;;;;;;;;5050617;28;20108;-92
2023/06/03 05:28:19;;;;;;;4.60;1.65;;;;;;;;;;5044730;28;20052;-90
2023/06/03 05:30:45;;;;;;;4.93;1.90;;;;;;;;;;5048232;28;20041;-91
2023/06/03 05:33:23;;;;;;;6.93;1.77;;;;;;;;;;5052024;28;20047;-86
2023/06/03 05:35:49;;;;;;;6.40;1.90;;;;;;;;;;5055986;28;20069;-90
2023/06/03 05:38:20;;;;;;;4.90;1.75;;;;;;;;;;5056741;28;20050;-88
2023/06/03 05:40:46;;;;;;;;;;;;;;;;;;5056910;28;20029;-89
2023/06/03 05:43:13;;;;;;;5.05;1.58;;;;;;;;;;5052249;28;19921;-88
2023/06/03 05:45:46;;;;;;;7.07;1.92;;;;;;;;;;5042675;28;20081;-91
2023/06/03 05:48:12;;;;;;;5.35;1.63;;;;;;;;;;5044268;28;20042;-88
2023/06/03 05:50:39;;;;;;;6.18;1.92;;;;;;;;;;5047039;28;20129;-91
2023/06/03 05:53:08;;;;;;;11.82;1.75;;;;;;;;;;5046538;28;20042;-91
2023/06/03 05:55:34;;;;;;;5.30;1.60;;;;;;;;;;5048087;28;20056;-86
2023/06/03 05:58:02;;;;;;;7.93;1.75;;;;;;;;;;5044583;28;20047;-90
2023/06/03 06:00:33;;;;;;;5.25;1.42;;;;;;;;;;5048624;28;20045;-90
2023/06/03 06:02:59;;;;;;;4.40;1.50;;;;;;;;;;5049183;28;20041;-92
2023/06/03 06:05:25;;;;;;;4.93;1.60;;;;;;;;;;5045979;28;20053;-92
2023/06/03 06:07:51;;;;;;;4.32;1.52;;;;;;;;;;5043623;28;20171;-90
2023/06/03 06:10:17;;;;;;;5.82;1.80;;;;;;;;;;5040574;28;20056;-90
2023/06/03 06:12:46;;;;;;;5.90;1.70;;;;;;;;;;5037640;28;20097;-91
2023/06/03 06:15:13;;;;;;;5.32;1.63;;;;;;;;;;5046768;28;20038;-92
2023/06/03 06:17:45;;;;;;;4.30;1.30;;;;;;;;;;5042310;28;20125;-90
2023/06/03 06:20:14;;;;;;;6.10;1.55;;;;;;;;;;5047088;28;20079;-92
2023/06/03 06:22:58;;;;;;;5.60;1.67;;;;;;;;;;5045778;28;20057;-91
2023/06/03 06:25:24;;;;;;;4.20;1.30;;;;;;;;;;5043618;28;20033;-92
2023/06/03 06:27:52;;;;;;;8.20;1.23;;;;;;;;;;5048644;28;20049;-91
2023/06/03 06:30:21;;;;;;;4.32;1.30;;;;;;;;;;5050283;28;20095;-92
2023/06/03 06:32:49;;;;;;;5.85;1.10;;;;;;;;;;5049104;28;20558;-91
2023/06/03 06:35:16;;;;;;;3.50;1.08;;;;;;;;;;5047430;28;20064;-92
2023/06/03 06:37:45;;;;;;;3.40;1.10;;;;;;;;;;5048567;28;20084;-90
2023/06/03 06:40:20;;;;;;;7.45;1.20;;;;;;;;;;5046055;28;20050;-91
2023/06/03 06:42:47;;;;;;;3.75;1.20;;;;;;;;;;5028490;28;20041;-92
2023/06/03 06:45:23;;;;;;;4.93;1.40;;;;;;;;;;5044775;28;20053;-92
2023/06/03 06:47:50;;;;;;;8.93;1.10;;;;;;;;;;5030197;28;20060;-92
2023/06/03 06:50:51;;;;;;;6.15;1.20;;;;;;;;;;5048619;28;20050;-91
2023/06/03 06:53:20;;;;;;;3.67;1.00;;;;;;;;;;4997417;28;20422;-93
2023/06/03 06:55:48;;;;;;;2.78;0.85;;;;;;;;;;5046781;28;20056;-91
2023/06/03 06:58:14;;;;;;;5.70;0.93;;;;;;;;;;5048095;28;20056;-92
2023/06/03 07:00:40;;;;;;;2.78;0.85;;;;;;;;;;5049555;28;20041;-89
2023/06/03 07:03:12;;;;;;;5.43;1.20;;;;;;;;;;5055319;28;20109;-91
2023/06/03 07:05:41;;;;;;;5.00;1.10;;;;;;;;;;5052976;28;20048;-90
2023/06/03 07:08:07;;;;;;;5.28;1.00;;;;;;;;;;5014001;28;20423;-91
2023/06/03 07:10:36;;;;;;;3.30;0.90;;;;;;;;;;5047723;28;20064;-92
2023/06/03 07:13:06;;;;;;;4.32;1.08;;;;;;;;;;5047755;28;20080;-91
2023/06/03 07:15:32;;;;;;;3.78;1.10;;;;;;;;;;5046763;28;20048;-92
2023/06/03 07:17:58;;;;;;;13.27;1.63;;;;;;;;;;5029162;28;20049;-91
2023/06/03 07:20:33;;;;;;;7.20;1.00;;;;;;;;;;5030014;28;20037;-92
2023/06/03 07:23:00;;;;;;;15.48;1.95;;;;;;;;;;5025843;28;20038;-91
2023/06/03 07:25:41;;;;;;;7.25;1.10;;;;;;;;;;5026867;28;20046;-88
2023/06/03 07:28:13;;;;;;;3.92;1.02;;;;;;;;;;5042719;28;20052;-93
2023/06/03 07:30:40;;;;;;;2.30;0.90;;;;;;;;;;5047497;28;20136;-91
2023/06/03 07:33:08;;;;;;;2.13;0.70;;;;;;;;;;5036162;28;20136;-91
2023/06/03 07:35:35;;;;;;;6.38;0.95;;;;;;;;;;5047048;28;20464;-89
2023/06/03 07:38:04;;;;;;;3.90;1.05;;;;;;;;;;5047659;28;20041;-91
2023/06/03 07:40:36;;;;;;;4.07;1.05;;;;;;;;;;5043322;28;20064;-90
2023/06/03 07:43:02;;;;;;;4.05;1.10;;;;;;;;;;5044999;28;20037;-94
2023/06/03 07:45:28;;;;;;;4.28;1.00;;;;;;;;;;5050241;28;20045;-91
2023/06/03 07:47:58;;;;;;;3.30;1.15;;;;;;;;;;5035656;28;20030;-90
2023/06/03 07:50:26;;;;;;;5.88;1.10;;;;;;;;;;5043653;28;20077;-91
2023/06/03 07:53:00;;;;;;;3.38;1.00;;;;;;;;;;5044073;28;20105;-92
2023/06/03 07:55:26;;;;;;;6.53;1.10;;;;;;;;;;5066490;28;20056;-92
2023/06/03 07:57:54;;;;;;;3.45;1.00;;;;;;;;;;5048412;28;20463;-93
2023/06/03 08:00:20;;;;;;;3.35;1.00;;;;;;;;;;5040421;28;20105;-93
2023/06/03 08:02:46;;;;;;;5.93;1.00;;;;;;;;;;5035442;28;20050;-93
2023/06/03 08:05:13;;;;;;;2.55;0.80;;;;;;;;;;5013724;28;20057;-93
2023/06/03 08:07:42;;;;;;;1.92;0.70;;;;;;;;;;5029741;28;20050;-94
2023/06/03 08:10:14;;;;;;;3.38;1.02;;;;;;;;;;5030921;28;20053;-91
2023/06/03 08:12:42;;;;;;;2.60;0.90;;;;;;;;;;5041450;28;20041;-93
2023/06/03 08:15:16;;;;;;;3.92;0.85;;;;;;;;;;5036684;28;20045;-92
2023/06/03 08:17:43;;;;;;;4.45;1.00;;;;;;;;;;5049751;28;20046;-88
2023/06/03 08:20:10;;;;;;;4.43;0.95;;;;;;;;;;5038512;28;20049;-87
2023/06/03 08:22:42;;;;;;;4.03;0.98;;;;;;;;;;5033363;28;20092;-90
2023/06/03 08:25:09;;;;;;;6.68;0.70;;;;;;;;;;5035463;28;20168;-91
2023/06/03 08:27:38;;;;;;;4.15;0.93;;;;;;;;;;5042614;28;20065;-91
2023/06/03 08:30:05;;;;;;;7.07;1.15;;;;;;;;;;5047581;28;20103;-91
2023/06/03 08:32:34;;;;;;;3.47;1.00;;;;;;;;;;5028567;28;20059;-92
2023/06/03 08:35:08;;;;;;;2.55;0.90;;;;;;;;;;5046889;28;20046;-93
2023/06/03 08:37:37;;;;;;;3.65;0.90;;;;;;;;;;5046235;28;20060;-93
2023/06/03 08:40:07;;;;;;;5.28;1.00;;;;;;;;;;5046660;28;20081;-88
2023/06/03 08:42:35;;;;;;;4.53;1.13;;;;;;;;;;5044588;28;20081;-93
2023/06/03 08:45:08;;;;;;;5.70;1.08;;;;;;;;;;5030533;28;20407;-93
2023/06/03 08:47:55;;;;;;;4.13;1.00;;;;;;;;;;5044677;28;20529;-92
2023/06/03 08:50:26;;;;;;;4.63;1.00;;;;;;;;;;5046901;28;20044;-92
2023/06/03 08:53:03;;;;;;;6.95;1.30;;;;;;;;;;5039155;28;20064;-90
2023/06/03 08:55:29;;;;;;;6.57;1.13;;;;;;;;;;5033770;28;20480;-90
2023/06/03 08:58:10;;;;;;;3.70;0.90;;;;;;;;;;5046637;28;20041;-90
2023/06/03 09:00:36;;;;;;;3.50;1.00;;;;;;;;;;5018971;28;20050;-92
2023/06/03 09:03:05;;;;;;;3.83;0.90;;;;;;;;;;5030655;28;20045;-91
2023/06/03 09:05:32;;;;;;;3.85;0.80;;;;;;;;;;5047009;28;20061;-90
2023/06/03 09:07:59;;;;;;;3.03;0.90;;;;;;;;;;5041040;28;20045;-92
2023/06/03 09:10:26;;;;;;;3.45;0.88;;;;;;;;;;5047649;28;20068;-91
2023/06/03 09:12:56;;;;;;;3.97;0.70;;;;;;;;;;5019570;28;20512;-92
2023/06/03 09:15:22;;;;;;;3.70;0.80;;;;;;;;;;5048106;28;20050;-92
2023/06/03 09:17:48;;;;;;;4.13;0.98;;;;;;;;;;5047720;28;20038;-93
2023/06/03 09:20:15;;;;;;;7.05;0.98;;;;;;;;;;5049435;28;20095;-92
2023/06/03 09:22:48;;;;;;;4.47;1.13;;;;;;;;;;5038397;28;20049;-94
2023/06/03 09:25:14;;;;;;;4.15;0.80;;;;;;;;;;5051283;28;20046;-91
2023/06/03 09:27:40;;;;;;;3.72;0.80;;;;;;;;;;5035242;28;20069;-93
2023/06/03 09:30:07;;;;;;;8.93;1.05;;;;;;;;;;5026118;28;20046;-91
2023/06/03 09:32:35;;;;;;;4.25;1.00;;;;;;;;;;5045343;28;20058;-88
2023/06/03 09:35:04;;;;;;;3.30;0.93;;;;;;;;;;5050614;28;20136;-88
2023/06/03 09:37:33;;;;;;;4.80;0.95;;;;;;;;;;5028446;28;20050;-84
2023/06/03 09:40:00;;;;;;;6.53;1.10;;;;;;;;;;5016449;28;20046;-85
2023/06/03 09:42:42;;;;;;;5.38;0.85;;;;;;;;;;5016976;28;20064;-87
2023/06/03 09:45:22;;;;;;;2.58;0.82;;;;;;;;;;5044257;28;20044;-93
2023/06/03 09:47:48;;;;;;;2.60;0.90;;;;;;;;;;5041143;28;20048;-92
2023/06/03 09:50:15;;;;;;;3.35;0.90;;;;;;;;;;5006560;28;20042;-92
2023/06/03 09:52:43;;;;;;;4.93;0.95;;;;;;;;;;5041264;28;20069;-92
2023/06/03 09:55:13;;;;;;;2.88;0.80;;;;;;;;;;4998718;28;20061;-93
2023/06/03 09:57:40;;;;;;;6.38;1.00;;;;;;;;;;5052875;28;20056;-94
2023/06/03 10:00:15;;;;;;;6.32;1.00;;;;;;;;;;5050573;28;20094;-91
2023/06/03 10:02:43;;;;;;;4.65;1.45;;;;;;;;;;5007463;28;20041;-91
2023/06/03 10:05:28;;;;;;;2.55;0.80;;;;;;;;;;5042453;28;20045;-91
2023/06/03 10:07:54;;;;;;;4.38;1.20;;;;;;;;;;5038432;28;20076;-91
2023/06/03 10:10:20;;;;;;;3.15;1.00;;;;;;;;;;5041167;28;20069;-91
2023/06/03 10:12:49;;;;;;;3.97;0.82;;;;;;;;;;5044766;28;20091;-91
2023/06/03 10:15:34;;;;;;;2.85;1.02;;;;;;;;;;5009824;28;20049;-91
2023/06/03 10:18:00;;;;;;;3.10;0.82;;;;;;;;;;5035257;28;20053;-92
2023/06/03 10:20:45;;;;;;;4.43;0.95;;;;;;;;;;5037139;28;20057;-89
2023/06/03 10:23:11;;;;;;;5.10;0.90;;;;;;;;;;5049399;28;20041;-88
2023/06/03 10:25:42;;;;;;;5.13;1.08;;;;;;;;;;5039079;28;20521;-89
2023/06/03 10:28:08;;;;;;;6.38;1.00;;;;;;;;;;5053583;28;20104;-92
2023/06/03 10:30:37;;;;;;;4.97;1.10;;;;;;;;;;5021347;28;20041;-92
2023/06/03 10:33:25;;;;;;;3.72;1.13;;;;;;;;;;5035931;28;20045;-91
2023/06/03 10:35:50;;;;;;;5.13;1.10;;;;;;;;;;5039165;28;20069;-86
2023/06/03 10:38:19;;;;;;;4.43;0.90;;;;;;;;;;5041124;28;20072;-89
2023/06/03 10:40:46;;;;;;;3.90;1.10;;;;;;;;;;5031994;28;20042;-90
2023/06/03 10:43:23;;;;;;;4.93;0.98;;;;;;;;;;5045453;28;20180;-90
2023/06/03 10:46:13;;;;;;;2.28;0.82;;;;;;;;;;5030421;28;20065;-90
2023/06/03 10:51:36;;;;;;;3.33;0.90;;;;;;;;;;5047191;28;20056;-91
2023/06/03 10:54:05;;;;;;;4.55;1.10;;;;;;;;;;5030456;28;20046;-90
2023/06/03 10:57:08;;;;;;;3.75;0.90;;;;;;;;;;5047589;28;20041;-92
2023/06/03 10:59:40;;;;;;;4.07;0.90;;;;;;;;;;4966202;29;20280;-91
2023/06/03 11:02:06;;;;;;;4.10;0.90;;;;;;;;;;4964478;29;20056;-92
2023/06/03 11:04:35;;;;;;;4.50;1.00;;;;;;;;;;4954649;29;20102;-89
2023/06/03 11:07:04;;;;;;;5.63;0.82;;;;;;;;;;4957131;29;20082;-90
2023/06/03 11:09:34;;;;;;;5.45;1.00;;;;;;;;;;4958275;29;20062;-90
2023/06/03 11:12:09;;;;;;;2.60;0.80;;;;;;;;;;4945684;29;20039;-89
2023/06/03 11:14:40;;;;;;;2.95;0.95;;;;;;;;;;4953298;29;20191;-86
2023/06/03 11:17:08;;;;;;;4.45;0.90;;;;;;;;;;4954805;29;20608;-87
2023/06/03 11:19:45;;;;;;;7.03;1.20;;;;;;;;;;4953941;29;20174;-87
2023/06/03 11:22:12;;;;;;;3.08;0.90;;;;;;;;;;4951591;29;20078;-92
2023/06/03 11:24:38;;;;;;;3.00;0.80;;;;;;;;;;4941915;29;20047;-89
2023/06/03 11:27:13;;;;;;;4.30;0.90;;;;;;;;;;4947496;29;20071;-88
2023/06/03 11:29:44;;;;;;;5.07;0.85;;;;;;;;;;4930124;29;20067;-88
2023/06/03 11:32:10;;;;;;;;;;;;;;;;;;4966660;29;20052;-90
2023/06/03 11:35:04;;;;;;;3.72;0.90;;;;;;;;;;5031658;28;19940;-88
2023/06/03 11:37:49;;;;;;;2.30;0.80;;;;;;;;;;5047076;28;20042;-87
2023/06/03 11:40:25;;;;;;;3.88;0.95;;;;;;;;;;5037195;28;20101;-91
2023/06/03 11:42:54;;;;;;;2.63;0.90;;;;;;;;;;5035477;28;20045;-89
2023/06/03 11:45:21;;;;;;;4.20;1.00;;;;;;;;;;5033394;28;20042;-87
2023/06/03 11:51:06;;;;;;;3.70;1.05;;;;;;;;;;5030587;28;20045;-89
2023/06/03 11:53:41;;;;;;;4.38;1.00;;;;;;;;;;5042467;28;20105;-88
2023/06/03 11:56:20;;;;;;;4.88;1.00;;;;;;;;;;5042915;28;20041;-89
2023/06/03 11:59:03;;;;;;;4.85;0.93;;;;;;;;;;5040643;28;20056;-90
2023/06/03 12:01:34;;;;;;;3.22;0.90;;;;;;;;;;5029868;28;20041;-88
2023/06/03 12:04:10;;;;;;;5.00;0.95;;;;;;;;;;5040379;28;20081;-87
2023/06/03 12:06:36;;;;;;;5.30;1.02;;;;;;;;;;5043038;28;20080;-89
2023/06/03 12:09:03;;;;;;;5.22;1.42;;;;;;;;;;5047986;28;20049;-87
2023/06/03 12:11:30;;;;;;;3.83;1.30;;;;;;;;;;5049249;28;20041;-87
2023/06/03 12:13:56;;;;;;;3.92;1.23;;;;;;;;;;5053026;28;20056;-87
2023/06/03 12:16:41;;;;;;;4.13;1.30;;;;;;;;;;5048436;28;20084;-87
2023/06/03 12:19:07;;;;;;;3.63;1.13;;;;;;;;;;5042660;28;20061;-88
2023/06/03 12:21:35;;;;;;;3.60;0.90;;;;;;;;;;5046316;28;20125;-88
2023/06/03 12:24:07;;;;;;;6.60;1.05;;;;;;;;;;5047270;28;20097;-87
2023/06/03 12:26:40;;;;;;;3.95;1.50;;;;;;;;;;5038731;28;20061;-87
2023/06/03 12:29:08;;;;;;;4.88;1.00;;;;;;;;;;5044659;28;20053;-86
2023/06/03 12:31:35;;;;;;;4.15;1.00;;;;;;;;;;5028360;28;20053;-88
2023/06/03 12:34:01;;;;;;;4.85;1.13;;;;;;;;;;5045904;28;20503;-87
2023/06/03 12:36:46;;;;;;;3.97;0.90;;;;;;;;;;5012794;28;20056;-87
2023/06/03 12:39:13;;;;;;;5.15;1.15;;;;;;;;;;5040013;28;20097;-88
2023/06/03 12:41:48;;;;;;;5.95;1.02;;;;;;;;;;5038359;28;20076;-90
2023/06/03 12:44:14;;;;;;;4.40;1.13;;;;;;;;;;5035370;28;20049;-90
2023/06/03 12:46:40;;;;;;;5.30;1.13;;;;;;;;;;5045759;28;20073;-89
2023/06/03 12:49:16;;;;;;;2.13;0.73;;;;;;;;;;5043291;28;20054;-90
2023/06/03 12:51:42;;;;;;;4.07;1.30;;;;;;;;;;5031134;28;20050;-88
2023/06/03 12:54:09;;;;;;;4.28;1.23;;;;;;;;;;5045236;28;20101;-90
2023/06/03 12:56:35;;;;;;;3.72;1.05;;;;;;;;;;5053377;28;20080;-90
2023/06/03 12:59:01;;;;;;;4.75;1.00;;;;;;;;;;5053555;28;20045;-87
2023/06/03 13:01:28;;;;;;;3.55;1.00;;;;;;;;;;5037166;28;20042;-90
2023/06/03 13:03:57;;;;;;;5.47;1.10;;;;;;;;;;5056587;28;20496;-89
2023/06/03 13:06:23;;;;;;;5.88;1.00;;;;;;;;;;5052458;28;20132;-89
2023/06/03 13:08:51;;;;;;;6.30;1.02;;;;;;;;;;5054273;28;20045;-89
2023/06/03 13:11:25;;;;;;;4.13;1.00;;;;;;;;;;5055048;28;20048;-88
2023/06/03 13:13:51;;;;;;;3.65;0.95;;;;;;;;;;5036664;28;20049;-88
2023/06/03 13:16:17;;;;;;;3.55;1.20;;;;;;;;;;5051037;28;20048;-90
2023/06/03 13:18:43;;;;;;;4.65;1.10;;;;;;;;;;5035158;28;20113;-89
2023/06/03 13:21:09;;;;;;;6.57;1.33;;;;;;;;;;5052660;28;20097;-90
2023/06/03 13:23:35;;;;;;;3.95;1.08;;;;;;;;;;5034659;28;20033;-90
2023/06/03 13:26:01;;;;;;;4.53;1.02;;;;;;;;;;5020038;28;20083;-89
2023/06/03 13:28:27;;;;;;;5.65;1.30;;;;;;;;;;5039422;28;20184;-90
2023/06/03 13:30:54;;;;;;;4.82;1.10;;;;;;;;;;5041150;28;20049;-90
2023/06/03 13:33:20;;;;;;;3.88;1.20;;;;;;;;;;5034394;28;20077;-87
2023/06/03 13:35:46;;;;;;;4.28;1.10;;;;;;;;;;5022106;28;20053;-86
2023/06/03 13:38:13;;;;;;;4.50;1.00;;;;;;;;;;5020747;28;20042;-89
2023/06/03 13:40:39;;;;;;;2.88;0.98;;;;;;;;;;5037269;28;20456;-88
2023/06/03 13:43:05;;;;;;;5.15;1.30;;;;;;;;;;5032840;28;20163;-87
2023/06/03 13:45:31;;;;;;;4.13;1.10;;;;;;;;;;5022762;28;20050;-89
2023/06/03 13:47:58;;;;;;;4.15;1.20;;;;;;;;;;5029154;28;20439;-86
2023/06/03 13:50:24;;;;;;;4.03;1.10;;;;;;;;;;5018388;28;20097;-88
2023/06/03 13:52:50;;;;;;;5.85;1.30;;;;;;;;;;5032880;28;20049;-87
2023/06/03 13:55:16;;;;;;;5.80;0.90;;;;;;;;;;5050031;28;20044;-84
2023/06/03 13:57:42;;;;;;;4.43;1.00;;;;;;;;;;5048096;28;20052;-88
2023/06/03 14:00:09;;;;;;;3.20;1.00;;;;;;;;;;5050099;28;20060;-89
2023/06/03 14:02:35;;;;;;;5.25;1.20;;;;;;;;;;5007102;28;20048;-88
2023/06/03 14:05:01;;;;;;;4.68;1.30;;;;;;;;;;5031088;28;20038;-88
2023/06/03 14:07:28;;;;;;;5.28;1.10;;;;;;;;;;5045373;28;20113;-89
2023/06/03 14:09:54;;;;;;;5.57;1.17;;;;;;;;;;5046635;28;20038;-87
2023/06/03 14:12:20;;;;;;;5.25;1.00;;;;;;;;;;5031395;28;20163;-90
2023/06/03 14:14:47;;;;;;;2.58;0.90;;;;;;;;;;5032447;28;20103;-88
2023/06/03 14:17:13;;;;;;;2.78;1.00;;;;;;;;;;5049858;28;20041;-90
2023/06/03 14:19:39;;;;;;;3.33;1.05;;;;;;;;;;5049917;28;20097;-87
2023/06/03 14:22:05;;;;;;;5.32;1.20;;;;;;;;;;5033547;28;20069;-87
2023/06/03 14:24:31;;;;;;;3.22;0.90;;;;;;;;;;5036891;28;20073;-89
2023/06/03 14:26:57;;;;;;;3.55;0.98;;;;;;;;;;5053368;28;20079;-87
2023/06/03 14:29:23;;;;;;;3.60;1.00;;;;;;;;;;5048690;28;20036;-89
2023/06/03 14:31:50;;;;;;;4.55;1.00;;;;;;;;;;5031953;28;20037;-89
2023/06/03 14:34:16;;;;;;;4.15;1.10;;;;;;;;;;5029435;28;20060;-90
2023/06/03 14:36:42;;;;;;;4.63;1.02;;;;;;;;;;5048478;28;20423;-86
2023/06/03 14:39:08;;;;;;;5.40;1.00;;;;;;;;;;5047331;28;20109;-86
2023/06/03 14:41:34;;;;;;;5.22;1.10;;;;;;;;;;5041146;28;20531;-87
2023/06/03 14:44:00;;;;;;;5.90;1.20;;;;;;;;;;5031469;28;20041;-87
2023/06/03 14:46:27;;;;;;;5.13;1.27;;;;;;;;;;5040748;28;20279;-88
2023/06/03 14:48:56;;;;;;;3.13;1.02;;;;;;;;;;5050411;28;20037;-89
2023/06/03 14:51:22;;;;;;;3.63;0.93;;;;;;;;;;5022786;28;20053;-88
2023/06/03 14:53:48;;;;;;;3.47;1.00;;;;;;;;;;5040056;28;20046;-90
2023/06/03 14:56:14;;;;;;;5.20;1.20;;;;;;;;;;5044471;28;20103;-89
2023/06/03 14:58:41;;;;;;;3.65;1.10;;;;;;;;;;5060823;28;20050;-88